sensor_id;sensor_type;location;lat;lon;timestamp;P1;durP1;ratioP1;P2;durP2;ratioP2
31734;SDS011;18313;48.518;9.124;2023-07-31T00:02:09;3.45;;;1.40;;
31734;SDS011;18313;48.518;9.124;2023-07-31T00:04:37;5.05;;;1.65;;
31734;SDS011;18313;48.518;9.124;2023-07-31T00:07:05;6.40;;;1.70;;
31734;SDS011;18313;48.518;9.124;2023-07-31T00:09:33;2.70;;;1.52;;
31734;SDS011;18313;48.518;9.124;2023-07-31T00:12:00;4.13;;;1.50;;
31734;SDS011;18313;48.518;9.124;2023-07-31T00:14:27;5.82;;;1.70;;
31734;SDS011;18313;48.518;9.124;2023-07-31T00:16:54;4.63;;;1.70;;
31734;SDS011;18313;48.518;9.124;2023-07-31T00:19:22;5.78;;;1.67;;
31734;SDS011;18313;48.518;9.124;2023-07-31T00:21:49;5.22;;;1.75;;
31734;SDS011;18313;48.518;9.124;2023-07-31T00:24:16;6.15;;;1.67;;
31734;SDS011;18313;48.518;9.124;2023-07-31T00:26:43;4.93;;;1.48;;
31734;SDS011;18313;48.518;9.124;2023-07-31T00:29:11;4.40;;;1.50;;
31734;SDS011;18313;48.518;9.124;2023-07-31T00:31:38;6.72;;;1.73;;
31734;SDS011;18313;48.518;9.124;2023-07-31T00:34:05;5.65;;;1.80;;
31734;SDS011;18313;48.518;9.124;2023-07-31T00:36:32;5.05;;;1.60;;
31734;SDS011;18313;48.518;9.124;2023-07-31T00:38:59;4.47;;;1.50;;
31734;SDS011;18313;48.518;9.124;2023-07-31T00:41:26;7.35;;;1.92;;
31734;SDS011;18313;48.518;9.124;2023-07-31T00:43:53;5.05;;;1.52;;
31734;SDS011;18313;48.518;9.124;2023-07-31T00:46:21;5.05;;;1.80;;
31734;SDS011;18313;48.518;9.124;2023-07-31T00:48:48;4.75;;;1.70;;
31734;SDS011;18313;48.518;9.124;2023-07-31T00:51:16;5.40;;;1.77;;
31734;SDS011;18313;48.518;9.124;2023-07-31T00:53:43;4.50;;;1.58;;
31734;SDS011;18313;48.518;9.124;2023-07-31T00:56:11;3.50;;;1.50;;
31734;SDS011;18313;48.518;9.124;2023-07-31T00:58:39;5.85;;;1.40;;
31734;SDS011;18313;48.518;9.124;2023-07-31T01:01:07;3.28;;;1.60;;
31734;SDS011;18313;48.518;9.124;2023-07-31T01:03:34;5.75;;;1.70;;
31734;SDS011;18313;48.518;9.124;2023-07-31T01:06:19;4.50;;;1.50;;
31734;SDS011;18313;48.518;9.124;2023-07-31T01:11:35;5.82;;;1.58;;
31734;SDS011;18313;48.518;9.124;2023-07-31T01:14:09;4.40;;;1.60;;
31734;SDS011;18313;48.518;9.124;2023-07-31T01:16:36;5.82;;;1.80;;
31734;SDS011;18313;48.518;9.124;2023-07-31T01:19:05;6.50;;;1.67;;
31734;SDS011;18313;48.518;9.124;2023-07-31T01:27:17;4.43;;;1.60;;
31734;SDS011;18313;48.518;9.124;2023-07-31T01:29:56;4.30;;;1.40;;
31734;SDS011;18313;48.518;9.124;2023-07-31T01:32:27;4.82;;;2.00;;
31734;SDS011;18313;48.518;9.124;2023-07-31T01:34:57;6.45;;;1.80;;
31734;SDS011;18313;48.518;9.124;2023-07-31T01:37:28;9.32;;;2.17;;
31734;SDS011;18313;48.518;9.124;2023-07-31T01:39:59;4.17;;;1.60;;
31734;SDS011;18313;48.518;9.124;2023-07-31T01:42:26;5.90;;;1.80;;
31734;SDS011;18313;48.518;9.124;2023-07-31T01:44:53;4.72;;;1.70;;
31734;SDS011;18313;48.518;9.124;2023-07-31T01:47:21;4.75;;;1.92;;
31734;SDS011;18313;48.518;9.124;2023-07-31T01:49:48;4.25;;;1.40;;
31734;SDS011;18313;48.518;9.124;2023-07-31T01:52:15;3.80;;;1.65;;
31734;SDS011;18313;48.518;9.124;2023-07-31T01:54:42;5.13;;;1.90;;
31734;SDS011;18313;48.518;9.124;2023-07-31T01:57:09;4.50;;;1.80;;
31734;SDS011;18313;48.518;9.124;2023-07-31T01:59:36;4.38;;;1.60;;
31734;SDS011;18313;48.518;9.124;2023-07-31T02:02:06;6.00;;;1.65;;
31734;SDS011;18313;48.518;9.124;2023-07-31T02:04:34;6.65;;;1.70;;
31734;SDS011;18313;48.518;9.124;2023-07-31T02:07:01;3.55;;;1.80;;
31734;SDS011;18313;48.518;9.124;2023-07-31T02:09:29;5.65;;;1.77;;
31734;SDS011;18313;48.518;9.124;2023-07-31T02:11:56;5.07;;;1.60;;
31734;SDS011;18313;48.518;9.124;2023-07-31T02:14:23;5.25;;;2.00;;
31734;SDS011;18313;48.518;9.124;2023-07-31T02:16:51;6.28;;;1.77;;
31734;SDS011;18313;48.518;9.124;2023-07-31T02:19:18;8.93;;;2.15;;
31734;SDS011;18313;48.518;9.124;2023-07-31T02:21:45;5.43;;;1.73;;
31734;SDS011;18313;48.518;9.124;2023-07-31T02:24:12;8.13;;;1.70;;
31734;SDS011;18313;48.518;9.124;2023-07-31T02:26:40;7.55;;;1.83;;
31734;SDS011;18313;48.518;9.124;2023-07-31T02:29:08;6.40;;;1.90;;
31734;SDS011;18313;48.518;9.124;2023-07-31T02:31:35;4.82;;;1.73;;
31734;SDS011;18313;48.518;9.124;2023-07-31T02:34:04;5.35;;;1.83;;
31734;SDS011;18313;48.518;9.124;2023-07-31T02:36:31;3.22;;;1.52;;
31734;SDS011;18313;48.518;9.124;2023-07-31T02:38:58;4.20;;;1.75;;
31734;SDS011;18313;48.518;9.124;2023-07-31T02:41:25;7.07;;;1.90;;
31734;SDS011;18313;48.518;9.124;2023-07-31T02:43:52;5.45;;;1.80;;
31734;SDS011;18313;48.518;9.124;2023-07-31T02:46:20;4.63;;;1.90;;
31734;SDS011;18313;48.518;9.124;2023-07-31T02:48:51;6.47;;;1.80;;
31734;SDS011;18313;48.518;9.124;2023-07-31T02:51:18;6.00;;;1.90;;
31734;SDS011;18313;48.518;9.124;2023-07-31T02:53:47;4.40;;;2.10;;
31734;SDS011;18313;48.518;9.124;2023-07-31T02:56:14;3.97;;;1.50;;
31734;SDS011;18313;48.518;9.124;2023-07-31T02:58:41;5.50;;;1.70;;
31734;SDS011;18313;48.518;9.124;2023-07-31T03:01:09;4.10;;;1.90;;
31734;SDS011;18313;48.518;9.124;2023-07-31T03:03:36;6.45;;;1.88;;
31734;SDS011;18313;48.518;9.124;2023-07-31T03:06:04;3.40;;;1.92;;
31734;SDS011;18313;48.518;9.124;2023-07-31T03:08:31;9.23;;;2.30;;
31734;SDS011;18313;48.518;9.124;2023-07-31T03:10:58;5.05;;;1.90;;
31734;SDS011;18313;48.518;9.124;2023-07-31T03:13:25;5.13;;;1.90;;
31734;SDS011;18313;48.518;9.124;2023-07-31T03:15:52;5.32;;;2.05;;
31734;SDS011;18313;48.518;9.124;2023-07-31T03:18:20;4.50;;;2.05;;
31734;SDS011;18313;48.518;9.124;2023-07-31T03:20:47;9.60;;;2.20;;
31734;SDS011;18313;48.518;9.124;2023-07-31T03:23:14;5.07;;;2.15;;
31734;SDS011;18313;48.518;9.124;2023-07-31T03:25:52;6.97;;;2.00;;
31734;SDS011;18313;48.518;9.124;2023-07-31T03:28:23;4.68;;;1.70;;
31734;SDS011;18313;48.518;9.124;2023-07-31T03:30:50;4.22;;;1.70;;
31734;SDS011;18313;48.518;9.124;2023-07-31T03:33:18;5.85;;;2.00;;
31734;SDS011;18313;48.518;9.124;2023-07-31T03:35:45;4.55;;;1.85;;
31734;SDS011;18313;48.518;9.124;2023-07-31T03:38:13;4.90;;;1.83;;
31734;SDS011;18313;48.518;9.124;2023-07-31T03:40:40;3.45;;;1.70;;
31734;SDS011;18313;48.518;9.124;2023-07-31T03:43:07;5.38;;;1.83;;
31734;SDS011;18313;48.518;9.124;2023-07-31T03:45:34;3.38;;;1.63;;
31734;SDS011;18313;48.518;9.124;2023-07-31T03:48:02;5.20;;;1.83;;
31734;SDS011;18313;48.518;9.124;2023-07-31T03:50:30;5.35;;;1.95;;
31734;SDS011;18313;48.518;9.124;2023-07-31T03:52:57;4.35;;;1.70;;
31734;SDS011;18313;48.518;9.124;2023-07-31T03:55:24;5.38;;;1.70;;
31734;SDS011;18313;48.518;9.124;2023-07-31T03:57:51;7.25;;;2.22;;
31734;SDS011;18313;48.518;9.124;2023-07-31T04:00:18;7.03;;;2.13;;
31734;SDS011;18313;48.518;9.124;2023-07-31T04:02:47;7.25;;;2.28;;
31734;SDS011;18313;48.518;9.124;2023-07-31T04:05:14;6.30;;;1.80;;
31734;SDS011;18313;48.518;9.124;2023-07-31T04:07:42;3.22;;;1.60;;
31734;SDS011;18313;48.518;9.124;2023-07-31T04:10:09;6.65;;;2.20;;
31734;SDS011;18313;48.518;9.124;2023-07-31T04:12:39;8.65;;;1.95;;
31734;SDS011;18313;48.518;9.124;2023-07-31T04:15:07;6.88;;;2.10;;
31734;SDS011;18313;48.518;9.124;2023-07-31T04:17:34;6.88;;;2.05;;
31734;SDS011;18313;48.518;9.124;2023-07-31T04:20:02;6.35;;;1.98;;
31734;SDS011;18313;48.518;9.124;2023-07-31T04:22:30;6.97;;;1.90;;
31734;SDS011;18313;48.518;9.124;2023-07-31T04:24:57;6.10;;;1.80;;
31734;SDS011;18313;48.518;9.124;2023-07-31T04:27:25;5.25;;;2.15;;
31734;SDS011;18313;48.518;9.124;2023-07-31T04:29:52;7.43;;;2.47;;
31734;SDS011;18313;48.518;9.124;2023-07-31T04:32:19;3.55;;;1.77;;
31734;SDS011;18313;48.518;9.124;2023-07-31T04:34:47;4.20;;;2.00;;
31734;SDS011;18313;48.518;9.124;2023-07-31T04:37:15;7.15;;;2.40;;
31734;SDS011;18313;48.518;9.124;2023-07-31T04:39:42;4.90;;;2.17;;
31734;SDS011;18313;48.518;9.124;2023-07-31T04:42:09;3.72;;;1.90;;
31734;SDS011;18313;48.518;9.124;2023-07-31T04:44:37;4.03;;;1.80;;
31734;SDS011;18313;48.518;9.124;2023-07-31T04:47:04;5.22;;;2.15;;
31734;SDS011;18313;48.518;9.124;2023-07-31T04:49:32;6.88;;;1.80;;
31734;SDS011;18313;48.518;9.124;2023-07-31T04:51:59;5.68;;;1.85;;
31734;SDS011;18313;48.518;9.124;2023-07-31T04:54:26;4.82;;;1.90;;
31734;SDS011;18313;48.518;9.124;2023-07-31T04:56:55;4.40;;;2.05;;
31734;SDS011;18313;48.518;9.124;2023-07-31T04:59:22;5.53;;;1.73;;
31734;SDS011;18313;48.518;9.124;2023-07-31T05:01:49;6.85;;;2.10;;
31734;SDS011;18313;48.518;9.124;2023-07-31T05:04:17;3.92;;;1.77;;
31734;SDS011;18313;48.518;9.124;2023-07-31T05:06:44;5.13;;;1.80;;
31734;SDS011;18313;48.518;9.124;2023-07-31T05:09:11;4.30;;;1.50;;
31734;SDS011;18313;48.518;9.124;2023-07-31T05:11:39;6.00;;;1.80;;
31734;SDS011;18313;48.518;9.124;2023-07-31T05:14:09;5.35;;;1.90;;
31734;SDS011;18313;48.518;9.124;2023-07-31T05:16:37;4.50;;;1.95;;
31734;SDS011;18313;48.518;9.124;2023-07-31T05:19:04;4.30;;;1.70;;
31734;SDS011;18313;48.518;9.124;2023-07-31T05:21:32;4.22;;;1.70;;
31734;SDS011;18313;48.518;9.124;2023-07-31T05:23:59;5.03;;;1.90;;
31734;SDS011;18313;48.518;9.124;2023-07-31T05:26:26;5.28;;;1.95;;
31734;SDS011;18313;48.518;9.124;2023-07-31T05:28:54;5.65;;;1.83;;
31734;SDS011;18313;48.518;9.124;2023-07-31T05:31:21;6.90;;;1.80;;
31734;SDS011;18313;48.518;9.124;2023-07-31T05:33:49;5.28;;;1.92;;
31734;SDS011;18313;48.518;9.124;2023-07-31T05:36:16;7.03;;;2.15;;
31734;SDS011;18313;48.518;9.124;2023-07-31T05:38:44;4.32;;;1.90;;
31734;SDS011;18313;48.518;9.124;2023-07-31T05:41:12;4.13;;;1.70;;
31734;SDS011;18313;48.518;9.124;2023-07-31T05:43:39;4.72;;;1.90;;
31734;SDS011;18313;48.518;9.124;2023-07-31T05:46:07;4.05;;;1.80;;
31734;SDS011;18313;48.518;9.124;2023-07-31T05:48:35;6.82;;;2.00;;
31734;SDS011;18313;48.518;9.124;2023-07-31T05:51:02;2.90;;;1.77;;
31734;SDS011;18313;48.518;9.124;2023-07-31T05:53:30;6.38;;;2.20;;
31734;SDS011;18313;48.518;9.124;2023-07-31T05:55:57;5.53;;;1.80;;
31734;SDS011;18313;48.518;9.124;2023-07-31T05:58:24;4.68;;;1.88;;
31734;SDS011;18313;48.518;9.124;2023-07-31T06:00:51;5.40;;;1.90;;
31734;SDS011;18313;48.518;9.124;2023-07-31T06:03:19;4.50;;;1.80;;
31734;SDS011;18313;48.518;9.124;2023-07-31T06:05:46;5.28;;;1.70;;
31734;SDS011;18313;48.518;9.124;2023-07-31T06:08:13;3.88;;;1.73;;
31734;SDS011;18313;48.518;9.124;2023-07-31T06:10:41;7.32;;;1.92;;
31734;SDS011;18313;48.518;9.124;2023-07-31T06:13:08;5.00;;;1.75;;
31734;SDS011;18313;48.518;9.124;2023-07-31T06:15:35;3.88;;;1.67;;
31734;SDS011;18313;48.518;9.124;2023-07-31T06:18:03;5.53;;;1.90;;
31734;SDS011;18313;48.518;9.124;2023-07-31T06:20:31;6.38;;;1.85;;
31734;SDS011;18313;48.518;9.124;2023-07-31T06:22:59;7.38;;;2.80;;
31734;SDS011;18313;48.518;9.124;2023-07-31T06:25:26;8.20;;;1.80;;
31734;SDS011;18313;48.518;9.124;2023-07-31T06:27:53;5.13;;;1.70;;
31734;SDS011;18313;48.518;9.124;2023-07-31T06:30:20;6.13;;;2.10;;
31734;SDS011;18313;48.518;9.124;2023-07-31T06:32:48;5.15;;;1.80;;
31734;SDS011;18313;48.518;9.124;2023-07-31T06:35:15;4.65;;;1.73;;
31734;SDS011;18313;48.518;9.124;2023-07-31T06:37:43;5.30;;;1.92;;
31734;SDS011;18313;48.518;9.124;2023-07-31T06:40:11;5.82;;;1.95;;
31734;SDS011;18313;48.518;9.124;2023-07-31T06:42:38;7.63;;;1.90;;
31734;SDS011;18313;48.518;9.124;2023-07-31T06:45:05;7.80;;;1.73;;
31734;SDS011;18313;48.518;9.124;2023-07-31T06:47:34;4.47;;;1.80;;
31734;SDS011;18313;48.518;9.124;2023-07-31T06:50:01;8.15;;;1.77;;
31734;SDS011;18313;48.518;9.124;2023-07-31T06:52:28;4.07;;;1.60;;
31734;SDS011;18313;48.518;9.124;2023-07-31T06:57:46;5.82;;;1.60;;
31734;SDS011;18313;48.518;9.124;2023-07-31T07:00:14;5.22;;;1.67;;
31734;SDS011;18313;48.518;9.124;2023-07-31T07:02:43;4.68;;;1.58;;
31734;SDS011;18313;48.518;9.124;2023-07-31T07:05:10;6.30;;;1.98;;
31734;SDS011;18313;48.518;9.124;2023-07-31T07:07:38;2.90;;;1.40;;
31734;SDS011;18313;48.518;9.124;2023-07-31T07:10:06;6.15;;;1.58;;
31734;SDS011;18313;48.518;9.124;2023-07-31T07:12:33;4.85;;;1.48;;
31734;SDS011;18313;48.518;9.124;2023-07-31T07:15:00;7.45;;;1.58;;
31734;SDS011;18313;48.518;9.124;2023-07-31T07:17:29;4.80;;;1.60;;
31734;SDS011;18313;48.518;9.124;2023-07-31T07:20:00;5.55;;;1.75;;
31734;SDS011;18313;48.518;9.124;2023-07-31T07:22:27;4.95;;;1.80;;
31734;SDS011;18313;48.518;9.124;2023-07-31T07:24:55;5.88;;;1.90;;
31734;SDS011;18313;48.518;9.124;2023-07-31T07:27:22;5.63;;;1.95;;
31734;SDS011;18313;48.518;9.124;2023-07-31T07:29:50;7.15;;;1.80;;
31734;SDS011;18313;48.518;9.124;2023-07-31T07:32:21;6.00;;;1.65;;
31734;SDS011;18313;48.518;9.124;2023-07-31T07:34:48;5.07;;;1.70;;
31734;SDS011;18313;48.518;9.124;2023-07-31T07:37:15;5.40;;;1.70;;
31734;SDS011;18313;48.518;9.124;2023-07-31T07:39:43;4.97;;;2.47;;
31734;SDS011;18313;48.518;9.124;2023-07-31T07:42:10;4.57;;;1.38;;
31734;SDS011;18313;48.518;9.124;2023-07-31T07:44:40;6.70;;;1.92;;
31734;SDS011;18313;48.518;9.124;2023-07-31T07:47:07;5.55;;;1.83;;
31734;SDS011;18313;48.518;9.124;2023-07-31T07:49:34;4.40;;;1.70;;
31734;SDS011;18313;48.518;9.124;2023-07-31T07:52:02;4.70;;;1.67;;
31734;SDS011;18313;48.518;9.124;2023-07-31T07:54:30;4.15;;;1.65;;
31734;SDS011;18313;48.518;9.124;2023-07-31T07:56:57;4.70;;;1.70;;
31734;SDS011;18313;48.518;9.124;2023-07-31T07:59:25;8.80;;;1.75;;
31734;SDS011;18313;48.518;9.124;2023-07-31T08:01:52;5.57;;;1.70;;
31734;SDS011;18313;48.518;9.124;2023-07-31T08:04:20;5.75;;;1.80;;
31734;SDS011;18313;48.518;9.124;2023-07-31T08:06:47;6.53;;;1.90;;
31734;SDS011;18313;48.518;9.124;2023-07-31T08:09:15;8.55;;;2.00;;
31734;SDS011;18313;48.518;9.124;2023-07-31T08:11:43;7.53;;;1.95;;
31734;SDS011;18313;48.518;9.124;2023-07-31T08:14:10;5.22;;;1.80;;
31734;SDS011;18313;48.518;9.124;2023-07-31T08:16:38;6.03;;;1.83;;
31734;SDS011;18313;48.518;9.124;2023-07-31T08:19:05;4.82;;;1.83;;
31734;SDS011;18313;48.518;9.124;2023-07-31T08:21:33;4.80;;;1.60;;
31734;SDS011;18313;48.518;9.124;2023-07-31T08:24:00;6.03;;;1.77;;
31734;SDS011;18313;48.518;9.124;2023-07-31T08:26:27;5.20;;;1.85;;
31734;SDS011;18313;48.518;9.124;2023-07-31T08:28:54;5.13;;;1.67;;
31734;SDS011;18313;48.518;9.124;2023-07-31T08:31:24;4.97;;;1.98;;
31734;SDS011;18313;48.518;9.124;2023-07-31T08:33:51;6.05;;;1.98;;
31734;SDS011;18313;48.518;9.124;2023-07-31T08:36:18;7.25;;;2.15;;
31734;SDS011;18313;48.518;9.124;2023-07-31T08:38:46;5.80;;;2.13;;
31734;SDS011;18313;48.518;9.124;2023-07-31T08:41:13;5.65;;;1.95;;
31734;SDS011;18313;48.518;9.124;2023-07-31T08:43:40;8.00;;;2.10;;
31734;SDS011;18313;48.518;9.124;2023-07-31T08:46:08;5.93;;;1.75;;
31734;SDS011;18313;48.518;9.124;2023-07-31T08:48:35;6.20;;;1.90;;
31734;SDS011;18313;48.518;9.124;2023-07-31T08:51:04;7.63;;;2.28;;
31734;SDS011;18313;48.518;9.124;2023-07-31T08:53:32;7.20;;;2.15;;
31734;SDS011;18313;48.518;9.124;2023-07-31T08:55:59;6.07;;;1.95;;
31734;SDS011;18313;48.518;9.124;2023-07-31T08:58:27;5.47;;;2.00;;
31734;SDS011;18313;48.518;9.124;2023-07-31T09:00:58;5.78;;;1.90;;
31734;SDS011;18313;48.518;9.124;2023-07-31T09:03:28;6.28;;;1.90;;
31734;SDS011;18313;48.518;9.124;2023-07-31T09:05:57;8.13;;;2.15;;
31734;SDS011;18313;48.518;9.124;2023-07-31T09:08:26;9.27;;;2.20;;
31734;SDS011;18313;48.518;9.124;2023-07-31T09:11:00;7.15;;;2.05;;
31734;SDS011;18313;48.518;9.124;2023-07-31T09:15:59;5.25;;;1.90;;
31734;SDS011;18313;48.518;9.124;2023-07-31T09:18:26;6.90;;;1.80;;
31734;SDS011;18313;48.518;9.124;2023-07-31T09:21:03;6.43;;;2.03;;
31734;SDS011;18313;48.518;9.124;2023-07-31T09:23:41;5.60;;;2.03;;
31734;SDS011;18313;48.518;9.124;2023-07-31T09:26:28;9.15;;;2.40;;
31734;SDS011;18313;48.518;9.124;2023-07-31T09:28:57;5.47;;;2.17;;
31734;SDS011;18313;48.518;9.124;2023-07-31T09:31:38;5.32;;;1.83;;
31734;SDS011;18313;48.518;9.124;2023-07-31T09:34:07;9.75;;;2.58;;
31734;SDS011;18313;48.518;9.124;2023-07-31T09:36:39;6.65;;;1.90;;
31734;SDS011;18313;48.518;9.124;2023-07-31T09:39:15;9.90;;;2.70;;
31734;SDS011;18313;48.518;9.124;2023-07-31T09:41:44;7.50;;;2.08;;
31734;SDS011;18313;48.518;9.124;2023-07-31T09:44:14;7.15;;;2.20;;
31734;SDS011;18313;48.518;9.124;2023-07-31T09:46:41;8.05;;;2.35;;
31734;SDS011;18313;48.518;9.124;2023-07-31T09:49:10;8.18;;;2.30;;
31734;SDS011;18313;48.518;9.124;2023-07-31T09:51:38;7.93;;;2.38;;
31734;SDS011;18313;48.518;9.124;2023-07-31T09:54:10;7.00;;;2.25;;
31734;SDS011;18313;48.518;9.124;2023-07-31T09:56:43;6.25;;;2.20;;
31734;SDS011;18313;48.518;9.124;2023-07-31T09:59:15;9.18;;;2.55;;
31734;SDS011;18313;48.518;9.124;2023-07-31T10:01:50;6.60;;;2.20;;
31734;SDS011;18313;48.518;9.124;2023-07-31T10:04:19;6.05;;;2.13;;
31734;SDS011;18313;48.518;9.124;2023-07-31T10:06:53;5.95;;;2.20;;
31734;SDS011;18313;48.518;9.124;2023-07-31T10:09:22;8.05;;;2.55;;
31734;SDS011;18313;48.518;9.124;2023-07-31T10:11:59;6.82;;;2.15;;
31734;SDS011;18313;48.518;9.124;2023-07-31T10:14:28;7.75;;;2.40;;
31734;SDS011;18313;48.518;9.124;2023-07-31T10:16:57;5.15;;;1.98;;
31734;SDS011;18313;48.518;9.124;2023-07-31T10:19:25;8.65;;;2.30;;
31734;SDS011;18313;48.518;9.124;2023-07-31T10:21:54;5.28;;;2.13;;
31734;SDS011;18313;48.518;9.124;2023-07-31T10:24:23;7.75;;;2.05;;
31734;SDS011;18313;48.518;9.124;2023-07-31T10:26:51;6.10;;;2.28;;
31734;SDS011;18313;48.518;9.124;2023-07-31T10:29:20;6.95;;;2.05;;
31734;SDS011;18313;48.518;9.124;2023-07-31T10:31:50;6.05;;;1.92;;
31734;SDS011;18313;48.518;9.124;2023-07-31T10:34:18;9.23;;;2.22;;
31734;SDS011;18313;48.518;9.124;2023-07-31T10:36:45;6.20;;;2.25;;
31734;SDS011;18313;48.518;9.124;2023-07-31T10:42:10;5.90;;;2.00;;
31734;SDS011;18313;48.518;9.124;2023-07-31T10:44:43;5.50;;;2.15;;
31734;SDS011;18313;48.518;9.124;2023-07-31T10:47:14;6.15;;;2.00;;
31734;SDS011;18313;48.518;9.124;2023-07-31T10:49:44;7.55;;;2.30;;
31734;SDS011;18313;48.518;9.124;2023-07-31T10:52:13;6.28;;;2.13;;
31734;SDS011;18313;48.518;9.124;2023-07-31T10:54:40;7.28;;;2.30;;
31734;SDS011;18313;48.518;9.124;2023-07-31T10:57:20;5.40;;;2.00;;
31734;SDS011;18313;48.518;9.124;2023-07-31T10:59:50;5.22;;;2.00;;
31734;SDS011;18313;48.518;9.124;2023-07-31T11:02:24;6.65;;;2.10;;
31734;SDS011;18313;48.518;9.124;2023-07-31T11:05:06;4.32;;;1.65;;
31734;SDS011;18313;48.518;9.124;2023-07-31T11:07:49;5.45;;;1.90;;
31734;SDS011;18313;48.518;9.124;2023-07-31T11:10:19;5.38;;;2.00;;
31734;SDS011;18313;48.518;9.124;2023-07-31T11:12:49;6.25;;;1.88;;
31734;SDS011;18313;48.518;9.124;2023-07-31T11:15:16;5.72;;;2.00;;
31734;SDS011;18313;48.518;9.124;2023-07-31T11:17:43;7.40;;;2.03;;
31734;SDS011;18313;48.518;9.124;2023-07-31T11:20:11;5.22;;;1.83;;
31734;SDS011;18313;48.518;9.124;2023-07-31T11:22:38;5.20;;;1.88;;
31734;SDS011;18313;48.518;9.124;2023-07-31T11:25:05;4.70;;;1.70;;
31734;SDS011;18313;48.518;9.124;2023-07-31T11:27:38;4.70;;;2.10;;
31734;SDS011;18313;48.518;9.124;2023-07-31T11:30:07;5.53;;;2.10;;
31734;SDS011;18313;48.518;9.124;2023-07-31T11:32:38;5.82;;;2.17;;
31734;SDS011;18313;48.518;9.124;2023-07-31T11:35:07;5.85;;;2.15;;
31734;SDS011;18313;48.518;9.124;2023-07-31T11:37:39;5.85;;;2.20;;
31734;SDS011;18313;48.518;9.124;2023-07-31T11:40:10;3.90;;;1.85;;
31734;SDS011;18313;48.518;9.124;2023-07-31T11:42:37;4.47;;;1.88;;
31734;SDS011;18313;48.518;9.124;2023-07-31T11:45:05;5.82;;;2.03;;
31734;SDS011;18313;48.518;9.124;2023-07-31T11:47:34;7.05;;;2.05;;
31734;SDS011;18313;48.518;9.124;2023-07-31T11:50:03;5.95;;;2.35;;
31734;SDS011;18313;48.518;9.124;2023-07-31T11:52:36;6.60;;;2.30;;
31734;SDS011;18313;48.518;9.124;2023-07-31T11:55:06;5.63;;;2.00;;
31734;SDS011;18313;48.518;9.124;2023-07-31T11:57:39;4.60;;;2.00;;
31734;SDS011;18313;48.518;9.124;2023-07-31T12:00:08;6.72;;;2.28;;
31734;SDS011;18313;48.518;9.124;2023-07-31T12:02:37;5.25;;;2.47;;
31734;SDS011;18313;48.518;9.124;2023-07-31T12:05:09;6.53;;;2.45;;
31734;SDS011;18313;48.518;9.124;2023-07-31T12:07:47;4.55;;;2.30;;
31734;SDS011;18313;48.518;9.124;2023-07-31T12:13:11;7.28;;;2.53;;
31734;SDS011;18313;48.518;9.124;2023-07-31T12:15:47;7.70;;;2.33;;
31734;SDS011;18313;48.518;9.124;2023-07-31T12:18:15;5.32;;;2.30;;
31734;SDS011;18313;48.518;9.124;2023-07-31T12:23:20;6.03;;;2.60;;
31734;SDS011;18313;48.518;9.124;2023-07-31T12:28:38;5.43;;;2.50;;
31734;SDS011;18313;48.518;9.124;2023-07-31T12:31:11;4.95;;;2.20;;
31734;SDS011;18313;48.518;9.124;2023-07-31T12:33:40;5.65;;;2.20;;
31734;SDS011;18313;48.518;9.124;2023-07-31T12:36:12;6.38;;;2.10;;
31734;SDS011;18313;48.518;9.124;2023-07-31T12:38:45;4.82;;;2.10;;
31734;SDS011;18313;48.518;9.124;2023-07-31T12:41:13;6.07;;;2.10;;
31734;SDS011;18313;48.518;9.124;2023-07-31T12:43:41;6.15;;;2.22;;
31734;SDS011;18313;48.518;9.124;2023-07-31T12:46:09;7.20;;;2.40;;
31734;SDS011;18313;48.518;9.124;2023-07-31T12:48:37;4.63;;;2.05;;
31734;SDS011;18313;48.518;9.124;2023-07-31T12:51:05;5.40;;;2.35;;
31734;SDS011;18313;48.518;9.124;2023-07-31T12:53:35;6.72;;;2.40;;
31734;SDS011;18313;48.518;9.124;2023-07-31T12:56:03;6.00;;;2.22;;
31734;SDS011;18313;48.518;9.124;2023-07-31T12:58:30;5.22;;;2.20;;
31734;SDS011;18313;48.518;9.124;2023-07-31T13:00:58;4.80;;;2.30;;
31734;SDS011;18313;48.518;9.124;2023-07-31T13:03:26;5.85;;;2.17;;
31734;SDS011;18313;48.518;9.124;2023-07-31T13:05:53;8.95;;;2.35;;
31734;SDS011;18313;48.518;9.124;2023-07-31T13:08:21;4.88;;;2.28;;
31734;SDS011;18313;48.518;9.124;2023-07-31T13:10:48;5.65;;;2.10;;
31734;SDS011;18313;48.518;9.124;2023-07-31T13:13:16;6.47;;;2.30;;
31734;SDS011;18313;48.518;9.124;2023-07-31T13:15:43;5.82;;;2.10;;
31734;SDS011;18313;48.518;9.124;2023-07-31T13:18:11;5.13;;;2.10;;
31734;SDS011;18313;48.518;9.124;2023-07-31T13:20:38;6.05;;;1.90;;
31734;SDS011;18313;48.518;9.124;2023-07-31T13:23:06;3.80;;;2.10;;
31734;SDS011;18313;48.518;9.124;2023-07-31T13:25:33;5.75;;;2.30;;
31734;SDS011;18313;48.518;9.124;2023-07-31T13:28:00;5.00;;;2.25;;
31734;SDS011;18313;48.518;9.124;2023-07-31T13:30:29;6.03;;;2.42;;
31734;SDS011;18313;48.518;9.124;2023-07-31T13:32:56;5.22;;;2.35;;
31734;SDS011;18313;48.518;9.124;2023-07-31T13:35:23;7.18;;;2.40;;
31734;SDS011;18313;48.518;9.124;2023-07-31T13:37:51;5.55;;;2.30;;
31734;SDS011;18313;48.518;9.124;2023-07-31T13:40:18;7.78;;;2.60;;
31734;SDS011;18313;48.518;9.124;2023-07-31T13:42:45;6.38;;;2.67;;
31734;SDS011;18313;48.518;9.124;2023-07-31T13:45:16;7.70;;;2.42;;
31734;SDS011;18313;48.518;9.124;2023-07-31T13:47:43;8.38;;;2.30;;
31734;SDS011;18313;48.518;9.124;2023-07-31T13:50:11;5.30;;;2.00;;
31734;SDS011;18313;48.518;9.124;2023-07-31T13:52:38;7.13;;;2.60;;
31734;SDS011;18313;48.518;9.124;2023-07-31T13:55:05;5.95;;;2.45;;
31734;SDS011;18313;48.518;9.124;2023-07-31T13:57:33;6.85;;;2.90;;
31734;SDS011;18313;48.518;9.124;2023-07-31T14:00:02;4.50;;;2.30;;
31734;SDS011;18313;48.518;9.124;2023-07-31T14:02:30;4.45;;;2.20;;
31734;SDS011;18313;48.518;9.124;2023-07-31T14:04:57;5.80;;;2.38;;
31734;SDS011;18313;48.518;9.124;2023-07-31T14:07:24;7.97;;;2.70;;
31734;SDS011;18313;48.518;9.124;2023-07-31T14:09:53;6.07;;;2.60;;
31734;SDS011;18313;48.518;9.124;2023-07-31T14:12:21;8.48;;;2.60;;
31734;SDS011;18313;48.518;9.124;2023-07-31T14:15:07;6.85;;;2.35;;
31734;SDS011;18313;48.518;9.124;2023-07-31T14:17:35;5.57;;;2.60;;
31734;SDS011;18313;48.518;9.124;2023-07-31T14:20:02;6.05;;;2.38;;
31734;SDS011;18313;48.518;9.124;2023-07-31T14:22:31;7.13;;;2.28;;
31734;SDS011;18313;48.518;9.124;2023-07-31T14:25:00;5.78;;;2.35;;
31734;SDS011;18313;48.518;9.124;2023-07-31T14:27:28;10.85;;;2.60;;
31734;SDS011;18313;48.518;9.124;2023-07-31T14:29:56;8.50;;;2.40;;
31734;SDS011;18313;48.518;9.124;2023-07-31T14:32:24;4.93;;;2.30;;
31734;SDS011;18313;48.518;9.124;2023-07-31T14:34:52;6.05;;;2.70;;
31734;SDS011;18313;48.518;9.124;2023-07-31T14:37:21;5.10;;;2.17;;
31734;SDS011;18313;48.518;9.124;2023-07-31T14:39:48;6.93;;;2.42;;
31734;SDS011;18313;48.518;9.124;2023-07-31T14:42:17;6.28;;;2.20;;
31734;SDS011;18313;48.518;9.124;2023-07-31T14:44:45;6.65;;;2.30;;
31734;SDS011;18313;48.518;9.124;2023-07-31T14:47:13;6.55;;;2.42;;
31734;SDS011;18313;48.518;9.124;2023-07-31T14:49:40;6.68;;;2.60;;
31734;SDS011;18313;48.518;9.124;2023-07-31T14:52:07;5.22;;;2.33;;
31734;SDS011;18313;48.518;9.124;2023-07-31T14:54:35;4.70;;;2.22;;
31734;SDS011;18313;48.518;9.124;2023-07-31T14:57:02;6.75;;;2.63;;
31734;SDS011;18313;48.518;9.124;2023-07-31T14:59:30;6.18;;;2.53;;
31734;SDS011;18313;48.518;9.124;2023-07-31T15:01:57;7.75;;;2.90;;
31734;SDS011;18313;48.518;9.124;2023-07-31T15:04:25;6.18;;;2.40;;
31734;SDS011;18313;48.518;9.124;2023-07-31T15:06:52;5.85;;;2.40;;
31734;SDS011;18313;48.518;9.124;2023-07-31T15:09:19;6.03;;;2.55;;
31734;SDS011;18313;48.518;9.124;2023-07-31T15:11:47;5.78;;;2.45;;
31734;SDS011;18313;48.518;9.124;2023-07-31T15:14:14;4.80;;;2.30;;
31734;SDS011;18313;48.518;9.124;2023-07-31T15:16:43;5.05;;;2.40;;
31734;SDS011;18313;48.518;9.124;2023-07-31T15:19:10;5.65;;;2.30;;
31734;SDS011;18313;48.518;9.124;2023-07-31T15:21:37;8.25;;;2.80;;